sensor_id;sensor_type;location;lat;lon;timestamp;temperature;humidity
4693;DHT22;11710;48.024;16.296;2023-05-10T04:21:47;19.30;92.20
4693;DHT22;11710;48.024;16.296;2023-05-10T04:24:14;21.30;90.00
4693;DHT22;11710;48.024;16.296;2023-05-10T04:26:41;22.70;85.70
4693;DHT22;11710;48.024;16.296;2023-05-10T04:29:08;24.10;81.90
4693;DHT22;11710;48.024;16.296;2023-05-10T04:31:35;25.50;79.00
4693;DHT22;11710;48.024;16.296;2023-05-10T04:34:03;26.70;75.60
4693;DHT22;11710;48.024;16.296;2023-05-10T04:36:30;28.00;73.70
4693;DHT22;11710;48.024;16.296;2023-05-10T04:38:59;29.00;70.20
4693;DHT22;11710;48.024;16.296;2023-05-10T04:41:26;30.00;67.90
4693;DHT22;11710;48.024;16.296;2023-05-10T04:43:53;30.90;65.90
4693;DHT22;11710;48.024;16.296;2023-05-10T04:46:21;31.70;63.90
4693;DHT22;11710;48.024;16.296;2023-05-10T04:48:48;32.40;62.20
4693;DHT22;11710;48.024;16.296;2023-05-10T04:51:15;33.20;60.50
4693;DHT22;11710;48.024;16.296;2023-05-10T04:53:42;33.90;59.20
4693;DHT22;11710;48.024;16.296;2023-05-10T04:56:11;34.60;57.10
4693;DHT22;11710;48.024;16.296;2023-05-10T04:58:38;35.30;55.80
4693;DHT22;11710;48.024;16.296;2023-05-10T05:01:06;35.80;54.40
4693;DHT22;11710;48.024;16.296;2023-05-10T05:03:34;36.30;52.70
4693;DHT22;11710;48.024;16.296;2023-05-10T05:06:01;36.90;51.70
4693;DHT22;11710;48.024;16.296;2023-05-10T05:08:28;37.40;50.50
4693;DHT22;11710;48.024;16.296;2023-05-10T05:10:55;37.90;49.30
4693;DHT22;11710;48.024;16.296;2023-05-10T05:13:24;38.30;48.30
4693;DHT22;11710;48.024;16.296;2023-05-10T05:15:51;38.80;47.40
4693;DHT22;11710;48.024;16.296;2023-05-10T05:18:19;38.30;46.00
4693;DHT22;11710;48.024;16.296;2023-05-10T05:20:46;35.70;48.20
4693;DHT22;11710;48.024;16.296;2023-05-10T05:23:13;32.20;51.90
4693;DHT22;11710;48.024;16.296;2023-05-10T05:25:40;31.40;53.50
4693;DHT22;11710;48.024;16.296;2023-05-10T05:28:08;28.90;56.60
4693;DHT22;11710;48.024;16.296;2023-05-10T05:30:36;28.10;58.20
4693;DHT22;11710;48.024;16.296;2023-05-10T05:33:04;27.20;59.40
4693;DHT22;11710;48.024;16.296;2023-05-10T05:35:31;25.60;62.70
4693;DHT22;11710;48.024;16.296;2023-05-10T05:37:58;24.20;64.40
4693;DHT22;11710;48.024;16.296;2023-05-10T05:40:25;22.40;66.30
4693;DHT22;11710;48.024;16.296;2023-05-10T05:42:52;20.50;69.70
4693;DHT22;11710;48.024;16.296;2023-05-10T05:45:20;19.10;72.50
4693;DHT22;11710;48.024;16.296;2023-05-10T05:47:48;18.10;75.80
4693;DHT22;11710;48.024;16.296;2023-05-10T05:50:16;17.40;77.90
4693;DHT22;11710;48.024;16.296;2023-05-10T05:52:43;16.90;79.50
4693;DHT22;11710;48.024;16.296;2023-05-10T05:55:11;16.80;81.20
4693;DHT22;11710;48.024;16.296;2023-05-10T05:57:38;16.40;82.20
4693;DHT22;11710;48.024;16.296;2023-05-10T06:00:07;16.30;83.20
4693;DHT22;11710;48.024;16.296;2023-05-10T06:02:35;16.20;84.30
4693;DHT22;11710;48.024;16.296;2023-05-10T06:05:04;16.50;85.10
4693;DHT22;11710;48.024;16.296;2023-05-10T06:07:31;16.70;84.10
4693;DHT22;11710;48.024;16.296;2023-05-10T06:09:59;16.50;84.70
4693;DHT22;11710;48.024;16.296;2023-05-10T06:12:26;16.40;85.30
4693;DHT22;11710;48.024;16.296;2023-05-10T06:14:53;16.40;85.80
4693;DHT22;11710;48.024;16.296;2023-05-10T06:17:20;16.50;86.00
4693;DHT22;11710;48.024;16.296;2023-05-10T06:19:47;16.80;85.90
4693;DHT22;11710;48.024;16.296;2023-05-10T06:22:16;16.90;86.00
4693;DHT22;11710;48.024;16.296;2023-05-10T06:24:43;16.90;86.00
4693;DHT22;11710;48.024;16.296;2023-05-10T06:27:10;17.00;86.30
4693;DHT22;11710;48.024;16.296;2023-05-10T06:29:38;17.00;84.70
4693;DHT22;11710;48.024;16.296;2023-05-10T06:32:05;16.60;84.80
4693;DHT22;11710;48.024;16.296;2023-05-10T06:34:32;16.50;84.30
4693;DHT22;11710;48.024;16.296;2023-05-10T06:36:59;16.50;84.80
4693;DHT22;11710;48.024;16.296;2023-05-10T06:39:28;16.50;84.80
4693;DHT22;11710;48.024;16.296;2023-05-10T06:41:55;16.70;84.70
4693;DHT22;11710;48.024;16.296;2023-05-10T06:44:22;16.60;85.20
4693;DHT22;11710;48.024;16.296;2023-05-10T06:46:49;16.40;84.40
4693;DHT22;11710;48.024;16.296;2023-05-10T06:49:18;16.40;84.90
4693;DHT22;11710;48.024;16.296;2023-05-10T06:51:45;16.50;84.00
4693;DHT22;11710;48.024;16.296;2023-05-10T06:54:12;16.50;83.50
4693;DHT22;11710;48.024;16.296;2023-05-10T06:56:41;16.60;83.60
4693;DHT22;11710;48.024;16.296;2023-05-10T06:59:09;16.50;84.30
4693;DHT22;11710;48.024;16.296;2023-05-10T07:01:36;16.60;85.60
4693;DHT22;11710;48.024;16.296;2023-05-10T07:04:04;16.70;85.20
4693;DHT22;11710;48.024;16.296;2023-05-10T07:06:33;16.80;83.90
4693;DHT22;11710;48.024;16.296;2023-05-10T07:09:00;16.70;82.90
4693;DHT22;11710;48.024;16.296;2023-05-10T07:11:28;16.70;82.10
4693;DHT22;11710;48.024;16.296;2023-05-10T07:13:57;16.80;82.40
4693;DHT22;11710;48.024;16.296;2023-05-10T07:16:25;16.90;82.30
4693;DHT22;11710;48.024;16.296;2023-05-10T07:18:52;17.00;83.20
4693;DHT22;11710;48.024;16.296;2023-05-10T07:21:20;17.00;82.20
4693;DHT22;11710;48.024;16.296;2023-05-10T07:23:49;17.00;83.10
4693;DHT22;11710;48.024;16.296;2023-05-10T07:26:17;17.10;83.50
4693;DHT22;11710;48.024;16.296;2023-05-10T07:28:45;17.40;81.70
4693;DHT22;11710;48.024;16.296;2023-05-10T07:31:14;17.30;81.70
4693;DHT22;11710;48.024;16.296;2023-05-10T07:33:41;17.20;81.70
4693;DHT22;11710;48.024;16.296;2023-05-10T07:36:08;17.10;80.10
4693;DHT22;11710;48.024;16.296;2023-05-10T07:38:35;17.00;79.70
4693;DHT22;11710;48.024;16.296;2023-05-10T07:41:02;16.90;80.30
4693;DHT22;11710;48.024;16.296;2023-05-10T07:43:30;17.00;80.40
4693;DHT22;11710;48.024;16.296;2023-05-10T07:45:57;17.00;82.10
4693;DHT22;11710;48.024;16.296;2023-05-10T07:48:26;17.20;83.30
4693;DHT22;11710;48.024;16.296;2023-05-10T07:50:54;17.20;82.30
4693;DHT22;11710;48.024;16.296;2023-05-10T07:53:21;17.20;82.60
4693;DHT22;11710;48.024;16.296;2023-05-10T07:55:50;17.30;82.50
4693;DHT22;11710;48.024;16.296;2023-05-10T07:58:17;17.40;82.30
4693;DHT22;11710;48.024;16.296;2023-05-10T08:00:44;17.30;82.00
4693;DHT22;11710;48.024;16.296;2023-05-10T08:05:40;17.30;81.70
4693;DHT22;11710;48.024;16.296;2023-05-10T08:08:08;17.30;83.10
4693;DHT22;11710;48.024;16.296;2023-05-10T08:10:35;17.60;84.10
4693;DHT22;11710;48.024;16.296;2023-05-10T08:13:02;17.60;84.40
4693;DHT22;11710;48.024;16.296;2023-05-10T08:15:29;17.40;83.20
4693;DHT22;11710;48.024;16.296;2023-05-10T08:17:56;17.30;84.00
4693;DHT22;11710;48.024;16.296;2023-05-10T08:20:23;17.40;84.70
4693;DHT22;11710;48.024;16.296;2023-05-10T08:22:52;17.70;85.00
4693;DHT22;11710;48.024;16.296;2023-05-10T08:25:19;17.70;83.70
4693;DHT22;11710;48.024;16.296;2023-05-10T08:27:46;17.60;83.60
4693;DHT22;11710;48.024;16.296;2023-05-10T08:30:13;17.50;84.70
4693;DHT22;11710;48.024;16.296;2023-05-10T08:32:44;17.50;83.50
4693;DHT22;11710;48.024;16.296;2023-05-10T08:35:13;17.40;84.30
4693;DHT22;11710;48.024;16.296;2023-05-10T08:37:43;17.40;84.40
4693;DHT22;11710;48.024;16.296;2023-05-10T08:40:13;17.40;83.50
4693;DHT22;11710;48.024;16.296;2023-05-10T08:42:45;17.50;84.00
4693;DHT22;11710;48.024;16.296;2023-05-10T08:45:16;17.40;83.60
4693;DHT22;11710;48.024;16.296;2023-05-10T08:47:45;17.40;84.20
4693;DHT22;11710;48.024;16.296;2023-05-10T08:50:13;17.50;84.30
4693;DHT22;11710;48.024;16.296;2023-05-10T08:52:42;17.70;84.60
4693;DHT22;11710;48.024;16.296;2023-05-10T08:55:09;17.80;83.60
4693;DHT22;11710;48.024;16.296;2023-05-10T08:57:38;17.90;83.00
4693;DHT22;11710;48.024;16.296;2023-05-10T09:00:07;17.90;82.70
4693;DHT22;11710;48.024;16.296;2023-05-10T09:02:36;18.00;83.40
4693;DHT22;11710;48.024;16.296;2023-05-10T09:05:04;18.30;84.10
4693;DHT22;11710;48.024;16.296;2023-05-10T09:07:32;18.40;83.00
4693;DHT22;11710;48.024;16.296;2023-05-10T09:09:59;18.10;82.70
4693;DHT22;11710;48.024;16.296;2023-05-10T09:12:27;17.90;83.40
4693;DHT22;11710;48.024;16.296;2023-05-10T09:14:57;17.70;82.70
4693;DHT22;11710;48.024;16.296;2023-05-10T09:17:28;17.70;83.40
4693;DHT22;11710;48.024;16.296;2023-05-10T09:19:58;17.80;83.40
4693;DHT22;11710;48.024;16.296;2023-05-10T09:22:26;18.00;82.90
4693;DHT22;11710;48.024;16.296;2023-05-10T09:25:04;18.00;83.00
4693;DHT22;11710;48.024;16.296;2023-05-10T09:27:32;18.00;83.30
4693;DHT22;11710;48.024;16.296;2023-05-10T09:30:01;18.20;83.20
4693;DHT22;11710;48.024;16.296;2023-05-10T09:32:38;18.40;82.60
4693;DHT22;11710;48.024;16.296;2023-05-10T09:35:07;18.40;82.30
4693;DHT22;11710;48.024;16.296;2023-05-10T09:37:35;18.60;83.20
4693;DHT22;11710;48.024;16.296;2023-05-10T09:40:05;19.00;81.60
4693;DHT22;11710;48.024;16.296;2023-05-10T09:42:33;19.00;79.80
4693;DHT22;11710;48.024;16.296;2023-05-10T09:45:03;18.80;80.60
4693;DHT22;11710;48.024;16.296;2023-05-10T09:47:32;19.00;80.10
4693;DHT22;11710;48.024;16.296;2023-05-10T09:50:00;19.00;79.00
4693;DHT22;11710;48.024;16.296;2023-05-10T09:52:31;18.90;80.00
4693;DHT22;11710;48.024;16.296;2023-05-10T09:55:12;18.80;78.90
4693;DHT22;11710;48.024;16.296;2023-05-10T09:57:39;18.80;78.90
4693;DHT22;11710;48.024;16.296;2023-05-10T10:00:11;18.50;79.00
4693;DHT22;11710;48.024;16.296;2023-05-10T10:02:45;18.80;79.20
4693;DHT22;11710;48.024;16.296;2023-05-10T10:05:13;18.50;78.90
4693;DHT22;11710;48.024;16.296;2023-05-10T10:07:41;18.60;80.30
4693;DHT22;11710;48.024;16.296;2023-05-10T10:10:09;18.60;78.10
4693;DHT22;11710;48.024;16.296;2023-05-10T10:12:39;18.30;79.00
4693;DHT22;11710;48.024;16.296;2023-05-10T10:15:09;18.10;80.50
4693;DHT22;11710;48.024;16.296;2023-05-10T10:17:37;18.40;82.00
4693;DHT22;11710;48.024;16.296;2023-05-10T10:20:07;18.60;80.50
4693;DHT22;11710;48.024;16.296;2023-05-10T10:22:35;18.60;80.20
4693;DHT22;11710;48.024;16.296;2023-05-10T10:25:04;18.70;81.00
4693;DHT22;11710;48.024;16.296;2023-05-10T10:27:39;19.20;80.90
4693;DHT22;11710;48.024;16.296;2023-05-10T10:30:17;19.20;80.70
4693;DHT22;11710;48.024;16.296;2023-05-10T10:33:18;19.30;79.80
4693;DHT22;11710;48.024;16.296;2023-05-10T10:35:52;19.00;79.30
4693;DHT22;11710;48.024;16.296;2023-05-10T10:38:20;19.10;80.00
4693;DHT22;11710;48.024;16.296;2023-05-10T10:40:48;18.80;80.40
4693;DHT22;11710;48.024;16.296;2023-05-10T10:43:28;18.80;78.10
4693;DHT22;11710;48.024;16.296;2023-05-10T10:46:16;18.80;79.10
4693;DHT22;11710;48.024;16.296;2023-05-10T10:48:49;18.70;80.60
4693;DHT22;11710;48.024;16.296;2023-05-10T10:51:17;18.70;79.20
4693;DHT22;11710;48.024;16.296;2023-05-10T10:53:44;18.60;79.10
4693;DHT22;11710;48.024;16.296;2023-05-10T10:56:14;18.90;78.60
4693;DHT22;11710;48.024;16.296;2023-05-10T10:58:50;18.80;78.20
4693;DHT22;11710;48.024;16.296;2023-05-10T11:01:20;18.90;81.30
4693;DHT22;11710;48.024;16.296;2023-05-10T11:04:18;18.80;79.80
4693;DHT22;11710;48.024;16.296;2023-05-10T11:06:46;18.70;79.20
4693;DHT22;11710;48.024;16.296;2023-05-10T11:09:14;18.80;80.10
4693;DHT22;11710;48.024;16.296;2023-05-10T11:11:52;19.10;78.90
4693;DHT22;11710;48.024;16.296;2023-05-10T11:14:21;19.20;78.70
4693;DHT22;11710;48.024;16.296;2023-05-10T11:16:50;19.50;79.70
4693;DHT22;11710;48.024;16.296;2023-05-10T11:19:18;19.70;78.10
4693;DHT22;11710;48.024;16.296;2023-05-10T11:21:46;19.70;78.20
4693;DHT22;11710;48.024;16.296;2023-05-10T11:24:15;19.60;77.50
4693;DHT22;11710;48.024;16.296;2023-05-10T11:26:43;19.70;77.80
4693;DHT22;11710;48.024;16.296;2023-05-10T11:29:12;19.80;78.90
4693;DHT22;11710;48.024;16.296;2023-05-10T11:31:44;19.80;78.70
4693;DHT22;11710;48.024;16.296;2023-05-10T11:34:23;19.70;78.90
4693;DHT22;11710;48.024;16.296;2023-05-10T11:36:52;19.40;78.90
4693;DHT22;11710;48.024;16.296;2023-05-10T11:39:20;19.30;78.50
4693;DHT22;11710;48.024;16.296;2023-05-10T11:41:49;19.10;78.20
4693;DHT22;11710;48.024;16.296;2023-05-10T11:44:16;19.00;78.90
4693;DHT22;11710;48.024;16.296;2023-05-10T11:46:44;19.10;79.60
4693;DHT22;11710;48.024;16.296;2023-05-10T11:49:12;19.10;79.40
4693;DHT22;11710;48.024;16.296;2023-05-10T11:51:40;19.10;78.80
4693;DHT22;11710;48.024;16.296;2023-05-10T11:54:10;19.40;79.80
4693;DHT22;11710;48.024;16.296;2023-05-10T11:56:38;19.30;78.10
4693;DHT22;11710;48.024;16.296;2023-05-10T11:59:06;19.20;78.00
4693;DHT22;11710;48.024;16.296;2023-05-10T12:01:34;19.50;77.10
4693;DHT22;11710;48.024;16.296;2023-05-10T12:04:02;19.60;78.30
4693;DHT22;11710;48.024;16.296;2023-05-10T12:06:32;19.70;77.60
4693;DHT22;11710;48.024;16.296;2023-05-10T12:09:07;19.60;76.80
4693;DHT22;11710;48.024;16.296;2023-05-10T12:11:37;19.60;77.10
4693;DHT22;11710;48.024;16.296;2023-05-10T12:14:05;19.60;76.90
4693;DHT22;11710;48.024;16.296;2023-05-10T12:16:33;19.70;78.80
4693;DHT22;11710;48.024;16.296;2023-05-10T12:19:00;20.10;77.20
4693;DHT22;11710;48.024;16.296;2023-05-10T12:21:30;20.00;78.00
4693;DHT22;11710;48.024;16.296;2023-05-10T12:24:01;19.70;77.90
4693;DHT22;11710;48.024;16.296;2023-05-10T12:26:29;19.60;76.30
4693;DHT22;11710;48.024;16.296;2023-05-10T12:29:12;19.70;77.40
4693;DHT22;11710;48.024;16.296;2023-05-10T12:31:55;19.70;76.30
4693;DHT22;11710;48.024;16.296;2023-05-10T12:34:26;19.70;76.60
4693;DHT22;11710;48.024;16.296;2023-05-10T12:36:55;19.90;75.40
4693;DHT22;11710;48.024;16.296;2023-05-10T12:39:23;19.90;74.90
4693;DHT22;11710;48.024;16.296;2023-05-10T12:41:51;19.80;75.60
4693;DHT22;11710;48.024;16.296;2023-05-10T12:44:18;19.50;76.20
4693;DHT22;11710;48.024;16.296;2023-05-10T12:46:45;19.20;76.50
4693;DHT22;11710;48.024;16.296;2023-05-10T12:49:13;19.40;76.80
4693;DHT22;11710;48.024;16.296;2023-05-10T12:51:40;19.60;74.90
4693;DHT22;11710;48.024;16.296;2023-05-10T12:54:09;19.80;74.20
4693;DHT22;11710;48.024;16.296;2023-05-10T12:56:37;20.00;74.60
4693;DHT22;11710;48.024;16.296;2023-05-10T12:59:06;19.70;74.20
4693;DHT22;11710;48.024;16.296;2023-05-10T13:01:33;19.70;75.10
4693;DHT22;11710;48.024;16.296;2023-05-10T13:04:00;19.60;73.00
4693;DHT22;11710;48.024;16.296;2023-05-10T13:06:28;19.60;73.80
4693;DHT22;11710;48.024;16.296;2023-05-10T13:08:55;19.50;73.60
4693;DHT22;11710;48.024;16.296;2023-05-10T13:11:24;19.60;75.30
4693;DHT22;11710;48.024;16.296;2023-05-10T13:13:51;19.70;75.10
4693;DHT22;11710;48.024;16.296;2023-05-10T13:16:19;20.00;75.00
4693;DHT22;11710;48.024;16.296;2023-05-10T13:18:46;20.10;75.20
4693;DHT22;11710;48.024;16.296;2023-05-10T13:21:13;20.10;73.90
4693;DHT22;11710;48.024;16.296;2023-05-10T13:23:40;20.20;74.40
4693;DHT22;11710;48.024;16.296;2023-05-10T13:26:07;20.20;74.10
4693;DHT22;11710;48.024;16.296;2023-05-10T13:28:36;20.20;74.60
4693;DHT22;11710;48.024;16.296;2023-05-10T13:31:04;20.00;72.40
4693;DHT22;11710;48.024;16.296;2023-05-10T13:33:31;19.90;72.90
4693;DHT22;11710;48.024;16.296;2023-05-10T13:35:58;20.00;73.60
4693;DHT22;11710;48.024;16.296;2023-05-10T13:38:26;20.00;73.90
4693;DHT22;11710;48.024;16.296;2023-05-10T13:40:53;19.80;74.10
4693;DHT22;11710;48.024;16.296;2023-05-10T13:43:20;19.90;74.40
4693;DHT22;11710;48.024;16.296;2023-05-10T13:45:49;19.70;74.90
4693;DHT22;11710;48.024;16.296;2023-05-10T13:48:16;19.60;75.90
4693;DHT22;11710;48.024;16.296;2023-05-10T13:50:43;19.50;75.00
4693;DHT22;11710;48.024;16.296;2023-05-10T13:53:10;19.40;74.60
4693;DHT22;11710;48.024;16.296;2023-05-10T13:55:38;19.60;76.40
4693;DHT22;11710;48.024;16.296;2023-05-10T13:58:05;19.80;74.80
4693;DHT22;11710;48.024;16.296;2023-05-10T14:00:32;19.90;74.80
4693;DHT22;11710;48.024;16.296;2023-05-10T14:03:01;19.90;74.70
4693;DHT22;11710;48.024;16.296;2023-05-10T14:05:28;20.00;74.40
4693;DHT22;11710;48.024;16.296;2023-05-10T14:07:55;19.90;72.70
4693;DHT22;11710;48.024;16.296;2023-05-10T14:10:22;19.80;73.70
4693;DHT22;11710;48.024;16.296;2023-05-10T14:12:50;19.90;73.00
4693;DHT22;11710;48.024;16.296;2023-05-10T14:15:17;19.80;73.20
4693;DHT22;11710;48.024;16.296;2023-05-10T14:17:45;19.80;73.80
4693;DHT22;11710;48.024;16.296;2023-05-10T14:20:13;20.00;73.50
4693;DHT22;11710;48.024;16.296;2023-05-10T14:22:40;19.90;72.00
4693;DHT22;11710;48.024;16.296;2023-05-10T14:25:08;19.70;71.90
4693;DHT22;11710;48.024;16.296;2023-05-10T14:27:36;19.50;72.10
4693;DHT22;11710;48.024;16.296;2023-05-10T14:30:04;19.40;72.70
4693;DHT22;11710;48.024;16.296;2023-05-10T14:32:31;19.40;72.50
4693;DHT22;11710;48.024;16.296;2023-05-10T14:34:59;19.50;73.50
4693;DHT22;11710;48.024;16.296;2023-05-10T14:37:28;19.50;74.00
4693;DHT22;11710;48.024;16.296;2023-05-10T14:39:55;19.50;74.20
4693;DHT22;11710;48.024;16.296;2023-05-10T14:42:22;19.40;74.00
4693;DHT22;11710;48.024;16.296;2023-05-10T14:44:49;19.40;74.70
4693;DHT22;11710;48.024;16.296;2023-05-10T14:47:17;19.50;74.80
4693;DHT22;11710;48.024;16.296;2023-05-10T14:49:46;19.70;73.60
4693;DHT22;11710;48.024;16.296;2023-05-10T14:52:14;19.80;73.00
4693;DHT22;11710;48.024;16.296;2023-05-10T14:54:43;20.10;72.70
4693;DHT22;11710;48.024;16.296;2023-05-10T14:57:12;20.10;73.40
4693;DHT22;11710;48.024;16.296;2023-05-10T14:59:43;20.20;72.30
4693;DHT22;11710;48.024;16.296;2023-05-10T15:02:11;20.00;72.90
4693;DHT22;11710;48.024;16.296;2023-05-10T15:04:39;20.10;71.20
4693;DHT22;11710;48.024;16.296;2023-05-10T15:07:07;20.30;71.00
4693;DHT22;11710;48.024;16.296;2023-05-10T15:09:34;20.30;71.20
4693;DHT22;11710;48.024;16.296;2023-05-10T15:12:04;20.30;71.50
4693;DHT22;11710;48.024;16.296;2023-05-10T15:14:32;20.20;71.70
4693;DHT22;11710;48.024;16.296;2023-05-10T15:17:02;19.90;71.50
4693;DHT22;11710;48.024;16.296;2023-05-10T15:19:29;19.70;73.30
4693;DHT22;11710;48.024;16.296;2023-05-10T15:21:56;19.50;72.50
4693;DHT22;11710;48.024;16.296;2023-05-10T15:24:26;19.30;72.70
4693;DHT22;11710;48.024;16.296;2023-05-10T15:26:55;19.20;73.20
4693;DHT22;11710;48.024;16.296;2023-05-10T15:29:25;19.20;73.70
4693;DHT22;11710;48.024;16.296;2023-05-10T15:31:52;19.10;73.20
4693;DHT22;11710;48.024;16.296;2023-05-10T15:34:19;19.10;74.40
4693;DHT22;11710;48.024;16.296;2023-05-10T15:36:46;19.00;73.70
4693;DHT22;11710;48.024;16.296;2023-05-10T15:39:14;19.00;74.40
4693;DHT22;11710;48.024;16.296;2023-05-10T15:41:41;19.00;74.70
4693;DHT22;11710;48.024;16.296;2023-05-10T15:44:09;19.10;74.90
4693;DHT22;11710;48.024;16.296;2023-05-10T15:46:39;19.00;75.40
4693;DHT22;11710;48.024;16.296;2023-05-10T15:49:06;19.00;75.70
4693;DHT22;11710;48.024;16.296;2023-05-10T15:51:34;18.90;76.60
4693;DHT22;11710;48.024;16.296;2023-05-10T15:54:02;18.80;77.30
4693;DHT22;11710;48.024;16.296;2023-05-10T15:56:32;18.80;77.00
4693;DHT22;11710;48.024;16.296;2023-05-10T15:58:59;18.80;76.90
4693;DHT22;11710;48.024;16.296;2023-05-10T16:01:29;18.70;77.20
4693;DHT22;11710;48.024;16.296;2023-05-10T16:04:04;18.70;77.80
4693;DHT22;11710;48.024;16.296;2023-05-10T16:06:33;18.70;77.50
4693;DHT22;11710;48.024;16.296;2023-05-10T16:09:01;18.60;76.80
4693;DHT22;11710;48.024;16.296;2023-05-10T16:11:29;18.60;76.10
4693;DHT22;11710;48.024;16.296;2023-05-10T16:13:56;18.50;75.70
4693;DHT22;11710;48.024;16.296;2023-05-10T16:16:23;18.50;75.90
4693;DHT22;11710;48.024;16.296;2023-05-10T16:18:51;18.50;76.00
4693;DHT22;11710;48.024;16.296;2023-05-10T16:21:19;18.40;76.40
4693;DHT22;11710;48.024;16.296;2023-05-10T16:23:47;18.50;76.40
4693;DHT22;11710;48.024;16.296;2023-05-10T16:26:16;18.50;76.90
4693;DHT22;11710;48.024;16.296;2023-05-10T16:28:44;18.60;77.00
4693;DHT22;11710;48.024;16.296;2023-05-10T16:31:11;18.70;78.00
4693;DHT22;11710;48.024;16.296;2023-05-10T16:33:38;18.80;77.30
4693;DHT22;11710;48.024;16.296;2023-05-10T16:36:06;18.80;77.50
4693;DHT22;11710;48.024;16.296;2023-05-10T16:38:35;18.70;77.00
4693;DHT22;11710;48.024;16.296;2023-05-10T16:41:02;18.70;77.80
4693;DHT22;11710;48.024;16.296;2023-05-10T16:43:31;18.80;77.90
4693;DHT22;11710;48.024;16.296;2023-05-10T16:46:11;18.80;77.60
4693;DHT22;11710;48.024;16.296;2023-05-10T16:48:48;18.80;76.80
4693;DHT22;11710;48.024;16.296;2023-05-10T16:51:15;18.60;75.40
4693;DHT22;11710;48.024;16.296;2023-05-10T16:53:44;18.50;75.90
4693;DHT22;11710;48.024;16.296;2023-05-10T16:56:11;18.50;75.40
4693;DHT22;11710;48.024;16.296;2023-05-10T16:58:38;18.40;75.90
4693;DHT22;11710;48.024;16.296;2023-05-10T17:01:05;18.40;76.00
4693;DHT22;11710;48.024;16.296;2023-05-10T17:03:33;18.30;75.90
4693;DHT22;11710;48.024;16.296;2023-05-10T17:06:00;18.30;76.10
4693;DHT22;11710;48.024;16.296;2023-05-10T17:08:27;18.30;77.00
4693;DHT22;11710;48.024;16.296;2023-05-10T17:11:00;18.30;76.60
4693;DHT22;11710;48.024;16.296;2023-05-10T17:13:27;18.20;76.80
4693;DHT22;11710;48.024;16.296;2023-05-10T17:15:54;18.10;77.30
4693;DHT22;11710;48.024;16.296;2023-05-10T17:18:22;18.10;77.90
4693;DHT22;11710;48.024;16.296;2023-05-10T17:20:51;18.10;78.00
4693;DHT22;11710;48.024;16.296;2023-05-10T17:23:18;18.00;78.40
4693;DHT22;11710;48.024;16.296;2023-05-10T17:25:45;18.00;78.70
4693;DHT22;11710;48.024;16.296;2023-05-10T17:28:14;17.90;78.90
4693;DHT22;11710;48.024;16.296;2023-05-10T17:30:41;17.90;79.00
4693;DHT22;11710;48.024;16.296;2023-05-10T17:33:09;17.90;79.60
4693;DHT22;11710;48.024;16.296;2023-05-10T17:35:36;17.80;79.60
4693;DHT22;11710;48.024;16.296;2023-05-10T17:38:03;17.70;80.20
4693;DHT22;11710;48.024;16.296;2023-05-10T17:40:30;17.70;81.20
4693;DHT22;11710;48.024;16.296;2023-05-10T17:42:58;17.60;80.70
4693;DHT22;11710;48.024;16.296;2023-05-10T17:45:26;17.60;80.70
4693;DHT22;11710;48.024;16.296;2023-05-10T17:47:53;17.50;81.00
4693;DHT22;11710;48.024;16.296;2023-05-10T17:50:21;17.50;80.80
4693;DHT22;11710;48.024;16.296;2023-05-10T17:52:48;17.50;81.40
4693;DHT22;11710;48.024;16.296;2023-05-10T17:55:15;17.40;81.40
4693;DHT22;11710;48.024;16.296;2023-05-10T17:57:42;17.40;81.50
4693;DHT22;11710;48.024;16.296;2023-05-10T18:00:11;17.40;81.50
4693;DHT22;11710;48.024;16.296;2023-05-10T18:02:40;17.40;81.80
4693;DHT22;11710;48.024;16.296;2023-05-10T18:05:08;17.40;82.00
4693;DHT22;11710;48.024;16.296;2023-05-10T18:07:36;17.30;82.40
4693;DHT22;11710;48.024;16.296;2023-05-10T18:10:04;17.30;82.40
4693;DHT22;11710;48.024;16.296;2023-05-10T18:12:34;17.30;82.70
4693;DHT22;11710;48.024;16.296;2023-05-10T18:15:03;17.30;82.60
4693;DHT22;11710;48.024;16.296;2023-05-10T18:17:30;17.20;82.60
4693;DHT22;11710;48.024;16.296;2023-05-10T18:20:01;17.20;82.40
4693;DHT22;11710;48.024;16.296;2023-05-10T18:22:28;17.10;82.10
4693;DHT22;11710;48.024;16.296;2023-05-10T18:24:55;17.10;82.10
4693;DHT22;11710;48.024;16.296;2023-05-10T18:27:22;17.10;81.90
4693;DHT22;11710;48.024;16.296;2023-05-10T18:29:50;17.10;81.70
4693;DHT22;11710;48.024;16.296;2023-05-10T18:32:17;17.10;82.10
4693;DHT22;11710;48.024;16.296;2023-05-10T18:34:45;17.10;81.90
4693;DHT22;11710;48.024;16.296;2023-05-10T18:37:13;17.10;81.90
4693;DHT22;11710;48.024;16.296;2023-05-10T18:39:41;17.00;81.90
4693;DHT22;11710;48.024;16.296;2023-05-10T18:42:08;17.00;82.10
4693;DHT22;11710;48.024;16.296;2023-05-10T18:44:35;17.00;82.10
4693;DHT22;11710;48.024;16.296;2023-05-10T18:47:03;17.00;82.20
4693;DHT22;11710;48.024;16.296;2023-05-10T18:49:30;17.00;82.40
4693;DHT22;11710;48.024;16.296;2023-05-10T18:51:57;16.90;82.30
4693;DHT22;11710;48.024;16.296;2023-05-10T18:54:26;16.90;82.60
4693;DHT22;11710;48.024;16.296;2023-05-10T18:56:53;17.00;82.60
4693;DHT22;11710;48.024;16.296;2023-05-10T18:59:22;17.00;82.90
4693;DHT22;11710;48.024;16.296;2023-05-10T19:01:49;17.00;82.90
4693;DHT22;11710;48.024;16.296;2023-05-10T19:04:17;16.90;83.00
4693;DHT22;11710;48.024;16.296;2023-05-10T19:06:44;16.90;83.10
4693;DHT22;11710;48.024;16.296;2023-05-10T19:09:11;16.90;83.10
4693;DHT22;11710;48.024;16.296;2023-05-10T19:11:40;16.90;83.50
4693;DHT22;11710;48.024;16.296;2023-05-10T19:14:08;16.80;83.30
4693;DHT22;11710;48.024;16.296;2023-05-10T19:16:35;16.90;83.60
4693;DHT22;11710;48.024;16.296;2023-05-10T19:19:02;16.80;83.80
4693;DHT22;11710;48.024;16.296;2023-05-10T19:21:29;16.80;84.00
4693;DHT22;11710;48.024;16.296;2023-05-10T19:23:57;16.70;83.90
4693;DHT22;11710;48.024;16.296;2023-05-10T19:26:26;16.80;84.00
4693;DHT22;11710;48.024;16.296;2023-05-10T19:28:55;16.80;84.30
4693;DHT22;11710;48.024;16.296;2023-05-10T19:31:23;16.80;84.00
4693;DHT22;11710;48.024;16.296;2023-05-10T19:33:50;16.80;83.80
4693;DHT22;11710;48.024;16.296;2023-05-10T19:36:18;16.80;83.70
4693;DHT22;11710;48.024;16.296;2023-05-10T19:38:45;16.80;83.90
